Archival Weather

Republic

Farmingdale, New York (KFRG)

Report from: Friday, February 23, 2024 11:53 AM EST
Current time: Friday, June 21, 2024 5:07 AM EDT

Current weather – Weather history – Daily summaries
Weather forecast

Temperature8.9°C (48.0°F)
Dew point4.4°C (39.9°F)
Winds Calm
Visibility10 mi. (16.1 km)
Clouds Scattered clouds 4,700 ft. (1,433 m)
Ceiling: Overcast 5,500 ft. (1,676 m)
Altimeter29.50 in.Hg (999 mB)
Relative humidity73 %
Density altitude-118 ft. (-36 m)
Sea-level pressure99.9 kPa (999 mB, 29.50 in.Hg)
Remarks Automated weather observing station without precipitation discriminator
Flight conditions Visual Meteorological Conditions
Raw dataKFRG 231653Z 00000KT 10SM SCT047 OVC055 09/04 A2950 RMK AO1 SLP989 T00890044
An error has occurred. This application may no longer respond until reloaded. Reload 🗙